createdAt,value
2017-06-11T00:00:34.869Z,0
2017-06-11T00:01:35.231Z,0
2017-06-11T00:02:35.284Z,0
2017-06-11T00:03:35.646Z,0
2017-06-11T00:04:35.696Z,0
2017-06-11T00:05:35.752Z,0
2017-06-11T00:06:35.499Z,0
2017-06-11T00:07:35.861Z,0
2017-06-11T00:08:35.915Z,0
2017-06-11T00:09:35.966Z,0
2017-06-11T00:10:36.021Z,0
2017-06-11T00:11:36.106Z,0
2017-06-11T00:12:36.133Z,0
2017-06-11T00:13:36.188Z,0
2017-06-11T00:14:36.243Z,0
2017-06-11T00:15:36.000Z,0
2017-06-11T00:16:36.353Z,0
2017-06-11T00:17:36.103Z,0
2017-06-11T00:18:49.847Z,0
2017-06-11T00:19:36.721Z,0
2017-06-11T00:20:36.567Z,0
2017-06-11T00:21:36.322Z,0
2017-06-11T00:22:36.675Z,0
2017-06-11T00:23:36.737Z,0
2017-06-11T00:24:36.998Z,0
2017-06-11T00:25:36.846Z,0
2017-06-11T00:26:36.595Z,0
2017-06-11T00:27:36.957Z,0
2017-06-11T00:28:36.705Z,0
2017-06-11T00:29:37.059Z,0
2017-06-11T00:30:37.119Z,0
2017-06-11T00:31:37.175Z,0
2017-06-11T00:32:37.230Z,0
2017-06-11T00:33:37.283Z,0
2017-06-11T00:34:37.347Z,0
2017-06-11T00:35:37.386Z,0
2017-06-11T00:36:37.148Z,0
2017-06-11T00:37:37.202Z,0
2017-06-11T00:38:37.253Z,0
2017-06-11T00:39:37.307Z,0
2017-06-11T00:40:37.360Z,0
2017-06-11T00:41:37.723Z,0
2017-06-11T00:42:37.781Z,0
2017-06-11T00:43:37.830Z,0
2017-06-11T00:44:37.885Z,0
2017-06-11T00:45:37.965Z,0
2017-06-11T00:46:37.690Z,0
2017-06-11T00:47:38.054Z,0
2017-06-11T00:48:38.106Z,0
2017-06-11T00:49:38.363Z,0
2017-06-11T00:50:37.911Z,0
2017-06-11T00:51:38.266Z,0
2017-06-11T00:52:38.321Z,0
2017-06-11T00:53:38.375Z,0
2017-06-11T00:54:38.431Z,0
2017-06-11T00:55:38.688Z,0
2017-06-11T00:56:38.658Z,0
2017-06-11T00:57:38.595Z,0
2017-06-11T00:58:38.654Z,0
2017-06-11T00:59:38.706Z,0
2017-06-11T01:00:38.460Z,0
2017-06-11T01:01:51.892Z,0
2017-06-11T01:02:38.566Z,0
2017-06-11T01:03:38.926Z,0
2017-06-11T01:04:38.981Z,0
2017-06-11T01:05:38.757Z,0
2017-06-11T01:06:39.086Z,0
2017-06-11T01:07:39.145Z,0
2017-06-11T01:08:39.199Z,0
2017-06-11T01:09:39.251Z,0
2017-06-11T01:10:39.001Z,0
2017-06-11T01:11:39.059Z,0
2017-06-11T01:12:39.416Z,0
2017-06-11T01:13:39.178Z,0
2017-06-11T01:14:39.224Z,0
2017-06-11T01:15:39.582Z,0
2017-06-11T01:16:39.634Z,0
2017-06-11T01:17:39.690Z,0
2017-06-11T01:18:39.438Z,0
2017-06-11T01:19:39.496Z,0
2017-06-11T01:20:39.548Z,0
2017-06-11T01:21:39.600Z,0
2017-06-11T01:22:39.961Z,0
2017-06-11T01:23:40.016Z,0
2017-06-11T01:24:39.463Z,0
2017-06-11T01:25:40.342Z,0
2017-06-11T01:26:40.382Z,0
2017-06-11T01:27:39.929Z,0
2017-06-11T01:28:39.983Z,0
2017-06-11T01:29:40.039Z,0
2017-06-11T01:30:40.597Z,0
2017-06-11T01:31:40.450Z,0
2017-06-11T01:32:40.502Z,0
2017-06-11T01:33:40.561Z,0
2017-06-11T01:34:40.616Z,0
2017-06-11T01:35:40.668Z,0
2017-06-11T01:36:40.724Z,0
2017-06-11T01:37:40.469Z,0
2017-06-11T01:38:40.832Z,0
2017-06-11T01:39:40.886Z,0
2017-06-11T01:40:40.936Z,0
2017-06-11T01:41:40.993Z,0
2017-06-11T01:42:41.050Z,0
2017-06-11T01:43:41.101Z,0
2017-06-11T01:44:41.186Z,0
2017-06-11T01:45:41.211Z,0
2017-06-11T01:46:40.967Z,0
2017-06-11T01:47:41.318Z,0
2017-06-11T01:48:41.371Z,0
2017-06-11T01:49:41.127Z,0
2017-06-11T01:50:41.481Z,0
2017-06-11T01:51:41.536Z,0
2017-06-11T01:52:41.289Z,0
2017-06-11T01:53:41.648Z,0
2017-06-11T01:54:41.698Z,0
2017-06-11T01:55:41.152Z,0
2017-06-11T01:56:41.809Z,0
2017-06-11T01:57:41.859Z,0
2017-06-11T01:58:41.951Z,0
2017-06-11T01:59:41.970Z,0
2017-06-11T02:00:42.027Z,0
2017-06-11T02:01:42.084Z,0
2017-06-11T02:02:41.834Z,0
2017-06-11T02:03:42.186Z,0
2017-06-11T02:04:42.248Z,0
2017-06-11T02:05:42.299Z,0
2017-06-11T02:06:42.352Z,0
2017-06-11T02:07:42.409Z,0
2017-06-11T02:08:42.465Z,0
2017-06-11T02:09:42.519Z,0
2017-06-11T02:10:42.570Z,0
2017-06-11T02:11:42.624Z,0
2017-06-11T02:12:42.680Z,0
2017-06-11T02:13:42.738Z,0
2017-06-11T02:14:42.792Z,0
2017-06-11T02:15:42.542Z,0
2017-06-11T02:16:42.899Z,0
2017-06-11T02:17:42.648Z,0
2017-06-11T02:18:42.405Z,0
2017-06-11T02:19:42.761Z,0
2017-06-11T02:20:43.120Z,0
2017-06-11T02:21:42.875Z,0
2017-06-11T02:22:42.926Z,0
2017-06-11T02:23:43.280Z,0
2017-06-11T02:24:43.347Z,0
2017-06-11T02:25:43.389Z,0
2017-06-11T02:26:43.448Z,0
2017-06-11T02:27:43.498Z,0
2017-06-11T02:28:43.550Z,0
2017-06-11T02:29:43.603Z,0
2017-06-11T02:30:43.666Z,0
2017-06-11T02:31:43.717Z,0
2017-06-11T02:32:43.771Z,0
2017-06-11T02:33:43.828Z,0
2017-06-11T02:34:43.881Z,0
2017-06-11T02:35:43.629Z,0
2017-06-11T02:36:43.690Z,0
2017-06-11T02:37:44.063Z,0
2017-06-11T02:38:43.799Z,0
2017-06-11T02:39:43.852Z,0
2017-06-11T02:40:43.908Z,0
2017-06-11T02:41:44.262Z,0
2017-06-11T02:42:44.315Z,0
2017-06-11T02:43:44.374Z,0
2017-06-11T02:44:44.427Z,0
2017-06-11T02:45:44.476Z,0
2017-06-11T02:46:44.534Z,0
2017-06-11T02:47:44.587Z,0
2017-06-11T02:48:44.641Z,0
2017-06-11T02:49:44.694Z,0
2017-06-11T02:50:44.750Z,0
2017-06-11T02:51:44.802Z,0
2017-06-11T02:52:44.555Z,0
2017-06-11T02:53:44.917Z,0
2017-06-11T02:54:44.971Z,0
2017-06-11T02:55:45.025Z,0
2017-06-11T02:56:45.077Z,0
2017-06-11T02:57:45.139Z,0
2017-06-11T02:58:45.195Z,0
2017-06-11T02:59:45.241Z,0
2017-06-11T03:00:45.297Z,0
2017-06-11T03:01:45.349Z,4
2017-06-11T03:02:45.402Z,4
2017-06-11T03:03:45.459Z,4
2017-06-11T03:04:45.511Z,4
2017-06-11T03:05:45.573Z,0
2017-06-11T03:06:45.626Z,4
2017-06-11T03:07:45.676Z,4
2017-06-11T03:08:45.429Z,4
2017-06-11T03:09:45.792Z,4
2017-06-11T03:10:45.842Z,4
2017-06-11T03:11:45.895Z,4
2017-06-11T03:12:45.951Z,8
2017-06-11T03:13:46.002Z,8
2017-06-11T03:14:46.055Z,4
2017-06-11T03:15:45.813Z,8
2017-06-11T03:16:46.162Z,8
2017-06-11T03:17:46.225Z,12
2017-06-11T03:18:46.278Z,12
2017-06-11T03:19:46.331Z,12
2017-06-11T03:20:46.382Z,16
2017-06-11T03:21:46.446Z,12
2017-06-11T03:22:46.492Z,16
2017-06-11T03:23:46.545Z,20
2017-06-11T03:24:46.302Z,16
2017-06-11T03:25:46.654Z,20
2017-06-11T03:26:46.713Z,20
2017-06-11T03:27:46.769Z,24
2017-06-11T03:28:46.820Z,24
2017-06-11T03:29:46.873Z,24
2017-06-11T03:30:46.930Z,28
2017-06-11T03:31:46.686Z,28
2017-06-11T03:32:47.041Z,28
2017-06-11T03:33:47.098Z,32
2017-06-11T03:34:47.164Z,32
2017-06-11T03:35:47.206Z,36
2017-06-11T03:36:47.263Z,36
2017-06-11T03:37:47.313Z,40
2017-06-11T03:38:47.374Z,40
2017-06-11T03:39:47.423Z,40
2017-06-11T03:40:47.476Z,44
2017-06-11T03:41:47.533Z,48
2017-06-11T03:42:47.588Z,48
2017-06-11T03:43:47.645Z,52
2017-06-11T03:44:47.700Z,52
2017-06-11T03:45:47.755Z,52
2017-06-11T03:46:47.803Z,60
2017-06-11T03:47:47.860Z,60
2017-06-11T03:48:47.918Z,60
2017-06-11T03:49:47.969Z,64
2017-06-11T03:50:48.025Z,64
2017-06-11T03:51:48.079Z,72
2017-06-11T03:52:48.138Z,72
2017-06-11T03:53:48.188Z,76
2017-06-11T03:54:47.944Z,76
2017-06-11T03:55:48.298Z,76
2017-06-11T03:56:48.349Z,84
2017-06-11T03:57:48.407Z,84
2017-06-11T03:58:48.462Z,84
2017-06-11T03:59:48.523Z,88
2017-06-11T04:00:48.573Z,88
2017-06-11T04:01:48.634Z,88
2017-06-11T04:02:48.684Z,96
2017-06-11T04:03:48.738Z,96
2017-06-11T04:04:48.795Z,96
2017-06-11T04:05:48.868Z,104
2017-06-11T04:06:48.899Z,104
2017-06-11T04:07:48.955Z,104
2017-06-11T04:08:49.015Z,108
2017-06-11T04:09:49.061Z,112
2017-06-11T04:10:48.819Z,112
2017-06-11T04:11:49.177Z,112
2017-06-11T04:12:49.226Z,116
2017-06-11T04:13:49.282Z,116
2017-06-11T04:14:49.339Z,120
2017-06-11T04:15:49.397Z,124
2017-06-11T04:16:49.450Z,124
2017-06-11T04:17:49.504Z,128
2017-06-11T04:18:49.559Z,128
2017-06-11T04:19:49.644Z,128
2017-06-11T04:20:49.665Z,128
2017-06-11T04:21:49.723Z,132
2017-06-11T04:22:49.778Z,132
2017-06-11T04:23:49.827Z,136
2017-06-11T04:24:49.883Z,140
2017-06-11T04:25:49.938Z,136
2017-06-11T04:26:49.991Z,140
2017-06-11T04:27:50.046Z,140
2017-06-11T04:28:50.101Z,144
2017-06-11T04:29:50.162Z,144
2017-06-11T04:30:50.212Z,144
2017-06-11T04:31:50.275Z,148
2017-06-11T04:32:50.326Z,148
2017-06-11T04:33:50.378Z,148
2017-06-11T04:34:50.127Z,152
2017-06-11T04:35:50.488Z,152
2017-06-11T04:36:50.548Z,156
2017-06-11T04:37:50.595Z,164
2017-06-11T04:38:50.646Z,176
2017-06-11T04:39:50.742Z,184
2017-06-11T04:40:50.761Z,204
2017-06-11T04:41:50.817Z,220
2017-06-11T04:42:50.876Z,220
2017-06-11T04:43:50.918Z,220
2017-06-11T04:44:50.676Z,220
2017-06-11T04:45:50.733Z,220
2017-06-11T04:46:51.089Z,216
2017-06-11T04:47:51.144Z,216
2017-06-11T04:48:51.197Z,216
2017-06-11T04:49:50.652Z,220
2017-06-11T04:50:51.304Z,220
2017-06-11T04:51:51.357Z,220
2017-06-11T04:52:51.113Z,220
2017-06-11T04:53:51.171Z,224
2017-06-11T04:54:51.227Z,224
2017-06-11T04:55:51.578Z,224
2017-06-11T04:56:51.637Z,224
2017-06-11T04:57:51.685Z,224
2017-06-11T04:58:51.745Z,224
2017-06-11T04:59:51.195Z,228
2017-06-11T05:00:51.549Z,228
2017-06-11T05:01:51.907Z,232
2017-06-11T05:02:51.963Z,232
2017-06-11T05:03:52.012Z,236
2017-06-11T05:04:51.767Z,232
2017-06-11T05:05:52.127Z,236
2017-06-11T05:06:52.184Z,236
2017-06-11T05:07:52.237Z,240
2017-06-11T05:08:52.289Z,244
2017-06-11T05:09:52.345Z,248
2017-06-11T05:10:52.398Z,248
2017-06-11T05:11:52.455Z,244
2017-06-11T05:12:52.509Z,248
2017-06-11T05:13:52.564Z,252
2017-06-11T05:14:52.618Z,252
2017-06-11T05:15:52.671Z,256
2017-06-11T05:16:52.723Z,256
2017-06-11T05:17:52.781Z,260
2017-06-11T05:18:52.835Z,260
2017-06-11T05:19:52.588Z,260
2017-06-11T05:20:52.950Z,268
2017-06-11T05:21:52.997Z,268
2017-06-11T05:22:53.056Z,268
2017-06-11T05:23:53.110Z,272
2017-06-11T05:24:53.166Z,272
2017-06-11T05:25:53.228Z,272
2017-06-11T05:26:53.274Z,276
2017-06-11T05:27:53.329Z,276
2017-06-11T05:28:53.380Z,280
2017-06-11T05:29:53.437Z,284
2017-06-11T05:30:53.494Z,284
2017-06-11T05:31:53.547Z,288
2017-06-11T05:32:53.608Z,288
2017-06-11T05:33:53.654Z,288
2017-06-11T05:34:53.716Z,292
2017-06-11T05:35:53.766Z,292
2017-06-11T05:36:53.524Z,292
2017-06-11T05:37:53.872Z,296
2017-06-11T05:38:53.931Z,300
2017-06-11T05:39:53.686Z,300
2017-06-11T05:40:53.742Z,304
2017-06-11T05:41:54.119Z,304
2017-06-11T05:42:54.156Z,304
2017-06-11T05:43:54.208Z,312
2017-06-11T05:44:54.262Z,312
2017-06-11T05:45:54.311Z,316
2017-06-11T05:46:54.368Z,316
2017-06-11T05:47:54.441Z,316
2017-06-11T05:48:54.478Z,320
2017-06-11T05:49:54.533Z,324
2017-06-11T05:50:54.593Z,324
2017-06-11T05:51:54.647Z,324
2017-06-11T05:52:54.696Z,332
2017-06-11T05:53:54.751Z,332
2017-06-11T05:54:54.808Z,332
2017-06-11T05:55:54.863Z,332
2017-06-11T05:56:54.918Z,336
2017-06-11T05:57:54.971Z,336
2017-06-11T05:58:55.034Z,340
2017-06-11T05:59:55.080Z,344
2017-06-11T06:00:55.138Z,344
2017-06-11T06:01:55.195Z,344
2017-06-11T06:02:55.247Z,348
2017-06-11T06:03:55.298Z,348
2017-06-11T06:04:55.356Z,348
2017-06-11T06:05:55.411Z,352
2017-06-11T06:06:55.462Z,352
2017-06-11T06:07:55.519Z,356
2017-06-11T06:08:55.575Z,360
2017-06-11T06:09:55.630Z,360
2017-06-11T06:10:55.690Z,360
2017-06-11T06:11:55.739Z,364
2017-06-11T06:12:55.821Z,368
2017-06-11T06:13:55.846Z,368
2017-06-11T06:14:55.906Z,368
2017-06-11T06:15:55.955Z,372
2017-06-11T06:16:56.017Z,372
2017-06-11T06:17:56.065Z,376
2017-06-11T06:18:56.122Z,376
2017-06-11T06:19:56.176Z,380
2017-06-11T06:20:56.230Z,380
2017-06-11T06:21:55.984Z,380
2017-06-11T06:22:56.344Z,384
2017-06-11T06:23:56.396Z,380
2017-06-11T06:24:56.151Z,384
2017-06-11T06:25:56.503Z,384
2017-06-11T06:26:56.563Z,388
2017-06-11T06:27:56.615Z,388
2017-06-11T06:28:56.672Z,392
2017-06-11T06:29:56.722Z,392
2017-06-11T06:30:56.777Z,392
2017-06-11T06:31:56.829Z,396
2017-06-11T06:32:56.895Z,396
2017-06-11T06:33:56.943Z,396
2017-06-11T06:34:57.000Z,396
2017-06-11T06:35:57.053Z,400
2017-06-11T06:36:57.109Z,404
2017-06-11T06:37:57.157Z,404
2017-06-11T06:38:57.212Z,408
2017-06-11T06:39:57.274Z,412
2017-06-11T06:40:57.325Z,412
2017-06-11T06:41:57.383Z,412
2017-06-11T06:42:57.431Z,416
2017-06-11T06:43:57.490Z,420
2017-06-11T06:44:57.545Z,420
2017-06-11T06:45:57.601Z,420
2017-06-11T06:46:57.658Z,424
2017-06-11T06:47:57.711Z,424
2017-06-11T06:48:57.761Z,428
2017-06-11T06:49:57.822Z,432
2017-06-11T06:50:57.875Z,432
2017-06-11T06:51:57.928Z,432
2017-06-11T06:52:57.986Z,436
2017-06-11T06:53:58.048Z,436
2017-06-11T06:54:58.091Z,440
2017-06-11T06:55:58.148Z,440
2017-06-11T06:56:58.204Z,440
2017-06-11T06:57:58.258Z,444
2017-06-11T06:58:58.008Z,444
2017-06-11T06:59:58.370Z,448
2017-06-11T07:00:58.426Z,452
2017-06-11T07:01:58.474Z,452
2017-06-11T07:02:58.530Z,456
2017-06-11T07:03:58.582Z,456
2017-06-11T07:04:58.644Z,460
2017-06-11T07:05:58.696Z,460
2017-06-11T07:06:58.749Z,460
2017-06-11T07:07:58.803Z,464
2017-06-11T07:08:58.861Z,464
2017-06-11T07:09:58.614Z,468
2017-06-11T07:10:58.971Z,468
2017-06-11T07:11:59.029Z,468
2017-06-11T07:12:59.092Z,472
2017-06-11T07:13:59.141Z,472
2017-06-11T07:14:59.198Z,476
2017-06-11T07:15:59.248Z,476
2017-06-11T07:16:59.295Z,480
2017-06-11T07:17:59.354Z,476
2017-06-11T07:18:59.411Z,480
2017-06-11T07:19:59.458Z,480
2017-06-11T07:20:59.518Z,484
2017-06-11T07:21:59.571Z,484
2017-06-11T07:22:59.631Z,488
2017-06-11T07:23:59.686Z,488
2017-06-11T07:24:59.442Z,488
2017-06-11T07:25:59.796Z,488
2017-06-11T07:26:59.853Z,492
2017-06-11T07:27:59.908Z,496
2017-06-11T07:28:59.961Z,492
2017-06-11T07:30:00.018Z,496
2017-06-11T07:31:00.072Z,496
2017-06-11T07:32:00.126Z,500
2017-06-11T07:33:00.178Z,500
2017-06-11T07:34:00.241Z,500
2017-06-11T07:35:00.284Z,500
2017-06-11T07:36:00.343Z,504
2017-06-11T07:37:00.416Z,500
2017-06-11T07:38:00.451Z,504
2017-06-11T07:39:00.510Z,504
2017-06-11T07:40:00.559Z,508
2017-06-11T07:41:00.623Z,508
2017-06-11T07:42:00.675Z,508
2017-06-11T07:43:00.728Z,512
2017-06-11T07:44:00.789Z,508
2017-06-11T07:45:00.847Z,516
2017-06-11T07:46:00.918Z,516
2017-06-11T07:47:00.948Z,516
2017-06-11T07:48:01.004Z,516
2017-06-11T07:49:01.058Z,520
2017-06-11T07:50:01.113Z,520
2017-06-11T07:51:01.170Z,524
2017-06-11T07:52:01.219Z,524
2017-06-11T07:53:01.278Z,528
2017-06-11T07:54:01.338Z,528
2017-06-11T07:55:01.386Z,528
2017-06-11T07:56:01.439Z,528
2017-06-11T07:57:01.493Z,532
2017-06-11T07:58:01.551Z,532
2017-06-11T07:59:01.608Z,536
2017-06-11T08:00:01.660Z,540
2017-06-11T08:01:01.711Z,540
2017-06-11T08:02:01.765Z,540
2017-06-11T08:03:01.825Z,540
2017-06-11T08:04:01.876Z,540
2017-06-11T08:05:01.930Z,548
2017-06-11T08:06:02.011Z,548
2017-06-11T08:07:01.745Z,548
2017-06-11T08:08:02.096Z,552
2017-06-11T08:09:02.149Z,552
2017-06-11T08:10:02.207Z,556
2017-06-11T08:11:02.263Z,556
2017-06-11T08:12:02.312Z,556
2017-06-11T08:13:02.369Z,560
2017-06-11T08:14:02.425Z,564
2017-06-11T08:15:02.478Z,564
2017-06-11T08:16:02.535Z,564
2017-06-11T08:17:02.592Z,568
2017-06-11T08:18:02.641Z,568
2017-06-11T08:19:02.704Z,572
2017-06-11T08:20:02.753Z,572
2017-06-11T08:21:02.812Z,572
2017-06-11T08:22:02.865Z,580
2017-06-11T08:23:02.917Z,580
2017-06-11T08:24:02.974Z,580
2017-06-11T08:25:03.036Z,584
2017-06-11T08:26:03.115Z,584
2017-06-11T08:27:03.137Z,588
2017-06-11T08:28:03.187Z,592
2017-06-11T08:29:03.246Z,592
2017-06-11T08:30:03.310Z,596
2017-06-11T08:31:03.350Z,596
2017-06-11T08:32:03.415Z,596
2017-06-11T08:33:03.463Z,600
2017-06-11T08:34:03.515Z,600
2017-06-11T08:35:03.571Z,604
2017-06-11T08:36:03.629Z,604
2017-06-11T08:37:03.682Z,608
2017-06-11T08:38:03.736Z,608
2017-06-11T08:39:03.791Z,612
2017-06-11T08:40:03.853Z,612
2017-06-11T08:41:03.902Z,612
2017-06-11T08:42:03.960Z,620
2017-06-11T08:43:04.015Z,620
2017-06-11T08:44:04.073Z,620
2017-06-11T08:45:03.820Z,624
2017-06-11T08:46:04.179Z,624
2017-06-11T08:47:04.234Z,628
2017-06-11T08:48:04.285Z,628
2017-06-11T08:49:04.338Z,632
2017-06-11T08:50:04.106Z,636
2017-06-11T08:51:04.453Z,636
2017-06-11T08:52:04.506Z,636
2017-06-11T08:53:04.561Z,640
2017-06-11T08:54:04.628Z,644
2017-06-11T08:55:04.673Z,644
2017-06-11T08:56:04.723Z,644
2017-06-11T08:57:04.777Z,648
2017-06-11T08:58:04.834Z,652
2017-06-11T08:59:04.893Z,652
2017-06-11T09:00:04.945Z,656
2017-06-11T09:01:04.999Z,660
2017-06-11T09:02:05.057Z,660
2017-06-11T09:03:05.106Z,664
2017-06-11T09:04:05.162Z,664
2017-06-11T09:05:04.915Z,668
2017-06-11T09:06:04.972Z,668
2017-06-11T09:07:05.322Z,672
2017-06-11T09:08:05.380Z,676
2017-06-11T09:09:05.433Z,676
2017-06-11T09:10:05.490Z,680
2017-06-11T09:11:05.551Z,680
2017-06-11T09:12:05.297Z,684
2017-06-11T09:13:05.651Z,688
2017-06-11T09:14:05.716Z,688
2017-06-11T09:15:05.765Z,692
2017-06-11T09:16:05.820Z,700
2017-06-11T09:17:05.875Z,700
2017-06-11T09:18:05.933Z,700
2017-06-11T09:19:05.981Z,704
2017-06-11T09:20:05.439Z,704
2017-06-11T09:21:05.792Z,708
2017-06-11T09:22:05.843Z,712
2017-06-11T09:23:06.201Z,712
2017-06-11T09:24:06.255Z,716
2017-06-11T09:25:06.013Z,720
2017-06-11T09:26:06.368Z,720
2017-06-11T09:27:06.456Z,724
2017-06-11T09:28:06.476Z,728
2017-06-11T09:29:06.530Z,728
2017-06-11T09:30:06.286Z,736
2017-06-11T09:31:06.644Z,740
2017-06-11T09:32:06.693Z,740
2017-06-11T09:33:06.783Z,740
2017-06-11T09:34:06.807Z,744
2017-06-11T09:35:06.863Z,748
2017-06-11T09:36:06.613Z,752
2017-06-11T09:37:06.670Z,752
2017-06-11T09:38:07.026Z,756
2017-06-11T09:39:06.775Z,760
2017-06-11T09:40:07.134Z,764
2017-06-11T09:41:07.199Z,764
2017-06-11T09:42:07.248Z,768
2017-06-11T09:43:07.337Z,772
2017-06-11T09:44:07.350Z,776
2017-06-11T09:45:07.414Z,776
2017-06-11T09:46:07.463Z,784
2017-06-11T09:47:07.518Z,784
2017-06-11T09:48:07.572Z,784
2017-06-11T09:49:07.627Z,788
2017-06-11T09:50:07.681Z,788
2017-06-11T09:51:07.740Z,792
2017-06-11T09:52:07.487Z,796
2017-06-11T09:53:07.847Z,800
2017-06-11T09:54:07.904Z,804
2017-06-11T09:55:07.964Z,804
2017-06-11T09:56:08.021Z,808
2017-06-11T09:57:07.765Z,812
2017-06-11T09:58:08.135Z,816
2017-06-11T09:59:08.181Z,820
2017-06-11T10:00:08.234Z,824
2017-06-11T10:01:07.983Z,828
2017-06-11T10:02:08.348Z,828
2017-06-11T10:03:08.399Z,832
2017-06-11T10:04:08.455Z,836
2017-06-11T10:05:08.507Z,836
2017-06-11T10:06:08.565Z,836
2017-06-11T10:07:08.624Z,844
2017-06-11T10:08:08.676Z,844
2017-06-11T10:09:08.727Z,844
2017-06-11T10:10:08.483Z,848
2017-06-11T10:11:08.836Z,852
2017-06-11T10:12:08.893Z,856
2017-06-11T10:13:08.953Z,856
2017-06-11T10:14:09.004Z,860
2017-06-11T10:15:09.059Z,868
2017-06-11T10:16:09.116Z,868
2017-06-11T10:17:08.868Z,872
2017-06-11T10:18:09.225Z,872
2017-06-11T10:19:09.282Z,876
2017-06-11T10:20:09.335Z,876
2017-06-11T10:21:09.393Z,880
2017-06-11T10:22:09.445Z,884
2017-06-11T10:23:09.202Z,888
2017-06-11T10:24:09.253Z,892
2017-06-11T10:25:09.309Z,896
2017-06-11T10:26:09.668Z,900
2017-06-11T10:27:09.721Z,904
2017-06-11T10:28:09.475Z,908
2017-06-11T10:29:09.529Z,896
2017-06-11T10:30:09.888Z,908
2017-06-11T10:31:09.637Z,912
2017-06-11T10:32:10.004Z,916
2017-06-11T10:33:09.748Z,920
2017-06-11T10:34:09.803Z,924
2017-06-11T10:35:10.164Z,932
2017-06-11T10:36:10.218Z,932
2017-06-11T10:37:10.299Z,940
2017-06-11T10:38:10.328Z,940
2017-06-11T10:39:10.381Z,944
2017-06-11T10:40:10.442Z,940
2017-06-11T10:41:10.503Z,928
2017-06-11T10:42:10.562Z,936
2017-06-11T10:43:10.304Z,948
2017-06-11T10:44:10.678Z,944
2017-06-11T10:45:10.714Z,964
2017-06-11T10:46:10.791Z,968
2017-06-11T10:47:10.827Z,972
2017-06-11T10:48:10.883Z,976
2017-06-11T10:49:10.939Z,980
2017-06-11T10:50:10.989Z,984
2017-06-11T10:51:11.048Z,988
2017-06-11T10:52:11.104Z,996
2017-06-11T10:53:11.160Z,988
2017-06-11T10:54:11.216Z,988
2017-06-11T10:55:11.267Z,984
2017-06-11T10:56:11.322Z,984
2017-06-11T10:57:11.377Z,956
2017-06-11T10:58:11.436Z,932
2017-06-11T10:59:11.489Z,956
2017-06-11T11:00:11.543Z,952
2017-06-11T11:01:11.599Z,964
2017-06-11T11:02:11.656Z,984
2017-06-11T11:03:11.711Z,972
2017-06-11T11:04:11.763Z,992
2017-06-11T11:05:11.824Z,988
2017-06-11T11:06:11.876Z,964
2017-06-11T11:07:11.931Z,944
2017-06-11T11:08:11.988Z,964
2017-06-11T11:09:11.739Z,960
2017-06-11T11:10:12.098Z,980
2017-06-11T11:11:12.156Z,996
2017-06-11T11:12:12.215Z,1012
2017-06-11T11:13:12.259Z,1008
2017-06-11T11:14:12.322Z,1020
2017-06-11T11:15:12.374Z,1016
2017-06-11T11:16:12.429Z,1012
2017-06-11T11:17:12.484Z,1012
2017-06-11T11:18:12.541Z,1004
2017-06-11T11:19:12.598Z,1000
2017-06-11T11:20:12.653Z,992
2017-06-11T11:21:12.706Z,996
2017-06-11T11:22:12.761Z,996
2017-06-11T11:23:12.813Z,984
2017-06-11T11:24:12.871Z,988
2017-06-11T11:25:12.925Z,988
2017-06-11T11:26:12.678Z,988
2017-06-11T11:27:13.039Z,976
2017-06-11T11:28:13.092Z,980
2017-06-11T11:29:13.144Z,972
2017-06-11T11:30:13.200Z,972
2017-06-11T11:31:13.268Z,952
2017-06-11T11:32:13.317Z,964
2017-06-11T11:33:13.068Z,968
2017-06-11T11:34:13.430Z,984
2017-06-11T11:35:13.178Z,1000
2017-06-11T11:36:13.238Z,1000
2017-06-11T11:37:13.593Z,1000
2017-06-11T11:38:13.648Z,996
2017-06-11T11:39:13.702Z,996
2017-06-11T11:40:13.759Z,996
2017-06-11T11:41:13.814Z,1000
2017-06-11T11:42:13.869Z,1000
2017-06-11T11:43:13.925Z,1000
2017-06-11T11:44:13.980Z,1000
2017-06-11T11:45:14.037Z,1004
2017-06-11T11:46:14.090Z,996
2017-06-11T11:47:14.142Z,980
2017-06-11T11:48:13.895Z,968
2017-06-11T11:49:14.258Z,956
2017-06-11T11:50:14.006Z,952
2017-06-11T11:51:14.365Z,948
2017-06-11T11:52:14.422Z,968
2017-06-11T11:53:14.480Z,968
2017-06-11T11:54:14.536Z,972
2017-06-11T11:55:14.591Z,980
2017-06-11T11:56:14.649Z,964
2017-06-11T11:57:14.700Z,964
2017-06-11T11:58:14.761Z,968
2017-06-11T11:59:14.808Z,960
2017-06-11T12:00:14.564Z,948
2017-06-11T12:01:14.626Z,940
2017-06-11T12:02:14.980Z,920
2017-06-11T12:03:15.032Z,916
2017-06-11T12:04:15.091Z,900
2017-06-11T12:05:15.142Z,900
2017-06-11T12:06:14.896Z,888
2017-06-11T12:07:15.255Z,888
2017-06-11T12:08:15.009Z,888
2017-06-11T12:09:15.364Z,888
2017-06-11T12:10:15.423Z,880
2017-06-11T12:11:15.476Z,888
2017-06-11T12:12:15.531Z,884
2017-06-11T12:13:15.586Z,884
2017-06-11T12:14:15.645Z,880
2017-06-11T12:15:15.699Z,880
2017-06-11T12:16:15.754Z,872
2017-06-11T12:17:15.810Z,864
2017-06-11T12:18:15.864Z,864
2017-06-11T12:19:15.921Z,860
2017-06-11T12:20:15.972Z,856
2017-06-11T12:21:16.035Z,852
2017-06-11T12:22:16.085Z,848
2017-06-11T12:23:16.145Z,844
2017-06-11T12:24:16.201Z,840
2017-06-11T12:25:16.256Z,840
2017-06-11T12:26:16.311Z,836
2017-06-11T12:27:16.361Z,832
2017-06-11T12:28:16.419Z,828
2017-06-11T12:29:16.487Z,824
2017-06-11T12:30:16.528Z,824
2017-06-11T12:31:16.586Z,820
2017-06-11T12:32:16.636Z,812
2017-06-11T12:33:16.695Z,812
2017-06-11T12:34:16.754Z,812
2017-06-11T12:35:16.802Z,808
2017-06-11T12:36:16.561Z,804
2017-06-11T12:37:16.915Z,800
2017-06-11T12:38:16.976Z,796
2017-06-11T12:39:17.023Z,792
2017-06-11T12:40:17.086Z,788
2017-06-11T12:41:17.137Z,788
2017-06-11T12:42:17.193Z,788
2017-06-11T12:43:17.244Z,784
2017-06-11T12:44:17.304Z,780
2017-06-11T12:45:17.358Z,776
2017-06-11T12:46:17.414Z,772
2017-06-11T12:47:17.471Z,772
2017-06-11T12:48:17.527Z,768
2017-06-11T12:49:17.573Z,764
2017-06-11T12:50:17.332Z,764
2017-06-11T12:51:17.690Z,760
2017-06-11T12:52:17.746Z,756
2017-06-11T12:53:17.802Z,752
2017-06-11T12:54:17.859Z,748
2017-06-11T12:55:17.910Z,744
2017-06-11T12:56:17.973Z,744
2017-06-11T12:57:18.047Z,744
2017-06-11T12:58:18.081Z,740
2017-06-11T12:59:18.138Z,736
2017-06-11T13:00:18.188Z,732
2017-06-11T13:01:18.241Z,728
2017-06-11T13:02:18.302Z,728
2017-06-11T13:03:18.354Z,724
2017-06-11T13:04:18.406Z,720
2017-06-11T13:05:18.467Z,720
2017-06-11T13:06:18.218Z,716
2017-06-11T13:07:18.584Z,712
2017-06-11T13:08:18.631Z,712
2017-06-11T13:09:18.688Z,708
2017-06-11T13:10:18.745Z,704
2017-06-11T13:11:18.796Z,704
2017-06-11T13:12:18.852Z,700
2017-06-11T13:13:18.912Z,700
2017-06-11T13:14:18.965Z,688
2017-06-11T13:15:19.024Z,696
2017-06-11T13:16:19.074Z,704
2017-06-11T13:17:19.132Z,628
2017-06-11T13:18:19.185Z,668
2017-06-11T13:19:19.236Z,680
2017-06-11T13:20:19.296Z,688
2017-06-11T13:21:19.353Z,692
2017-06-11T13:22:19.407Z,696
2017-06-11T13:23:19.163Z,696
2017-06-11T13:24:19.217Z,692
2017-06-11T13:25:19.576Z,684
2017-06-11T13:26:19.629Z,680
2017-06-11T13:27:19.680Z,668
2017-06-11T13:28:19.737Z,660
2017-06-11T13:29:19.798Z,656
2017-06-11T13:30:19.847Z,648
2017-06-11T13:31:19.907Z,644
2017-06-11T13:32:19.664Z,640
2017-06-11T13:33:19.713Z,636
2017-06-11T13:34:20.074Z,632
2017-06-11T13:35:20.131Z,628
2017-06-11T13:36:20.182Z,624
2017-06-11T13:37:20.240Z,624
2017-06-11T13:38:20.296Z,620
2017-06-11T13:39:20.351Z,616
2017-06-11T13:40:20.406Z,612
2017-06-11T13:41:20.464Z,608
2017-06-11T13:42:20.517Z,604
2017-06-11T13:43:20.576Z,600
2017-06-11T13:44:20.623Z,600
2017-06-11T13:45:20.381Z,600
2017-06-11T13:46:20.737Z,596
2017-06-11T13:47:20.801Z,596
2017-06-11T13:48:20.848Z,592
2017-06-11T13:49:20.907Z,588
2017-06-11T13:50:20.963Z,588
2017-06-11T13:51:21.010Z,580
2017-06-11T13:52:21.070Z,580
2017-06-11T13:53:21.130Z,572
2017-06-11T13:54:21.181Z,576
2017-06-11T13:55:21.238Z,572
2017-06-11T13:56:21.291Z,568
2017-06-11T13:57:20.748Z,568
2017-06-11T13:58:21.098Z,564
2017-06-11T13:59:21.460Z,564
2017-06-11T14:00:21.511Z,564
2017-06-11T14:01:21.570Z,564